787  
SHUS65 KGJT 242030  
FWOGJT  
 
DAILY FIRE WEATHER OBSERVATION  
NATIONAL WEATHER SERVICE GRAND JUNCTION CO  
212 PM MDT WED MAY 24 2017  
 
STATE OF THE WEATHER (W) 0  
DRY BULB TEMPERATURE 79 DEGREES FAHRENHEIT  
RELATIVE HUMIDITY (RH) 20 PERCENT  
LIGHTNING ACTIVITY LEVEL  
(LAL - MIDNIGHT TO 2 PM) 1  
WIND DIRECTION 360 DEGREES (C IF CALM)  
WIND SPEED 6 MPH  
MAX TEMP (2 PM - 2 PM) 79 DEGREES FAHRENHEIT  
MIN TEMP (2 PM - 2 PM) 47 DEGREES FAHRENHEIT  
MAX RH (2 PM - 2 PM) 52 PERCENT  
MIN RH (2 PM - 2 PM) 17 PERCENT  
PCPN DURATION 0.0 HOURS  
PCPN AMT (2 PM - 2 PM) 0.0 INCHES  
LAL (2 PM - 2 PM) 1  
 

 
 
METAR KGJT 241953Z 35005KT 10SM CLR 26/01 A2979 RMK AO2 SLP025  
T02610011  
 
CLICK HERE TO GO TO PREVIOUS BULLETINS.

The Nexlab CO Page
The Nexlab UT Page Main Text Page